x

South Bermuda - 300 Nm Sse Of Bermuda (41049) Wave Buoy

2:50pm - Fri 9th Dec 2016 All times are UTC.

  • Sig Wave height 5.2ft
  • Swell Direction
  • Peak Period 9s
  • Average Period 8s
  • Wind
    7mph, 9mph gusts
  • Sea Temp 76°f
  • Air Temp 75°f
  • Sea Pressure 1020.7mb

More Historic Weather Station data

Upgrade to MSW Pro to gain access to the past 30 days of data for over 8000 Wavebouys and Weather Stations around the globe.

Join Pro

Comparision Forecast

View Surf forecast
   
Fri 12/09 2:50pm 5ft 9s 8s 7 9 mph 1020.7mb 76f 75f
1:50pm 5ft 10s 8s 7 9 mph 1020.8mb 76f 75f
12:50pm 5ft 10s 8s 7 9 mph 1020.1mb 76f 75f
11:50am 5ft 9s 8s 7 9 mph 1019.5mb 76f 74f
10:50am 5ft 9s 8s 9 11 mph 1019mb 76f 74f
9:50am 5.5ft 10s 8s 7 9 mph 1018.4mb 76f 74f
8:50am 5ft 10s 7s 7 9 mph 1018.1mb 76f 74f
7:50am 5ft 9s 7s 7
mph
1018.1mb 76f 74f
6:50am 5.5ft 10s 8s 7 9 mph 1018.3mb 76f 74f
5:50am 6ft 10s 8s 7 9 mph 1018.3mb 76f 74f
4:50am 6ft 10s 7s 7
mph
1018.8mb 76f 74f
3:50am 5.5ft 11s 7s 4 7 mph 1019.1mb 76f 74f
2:50am 5ft 9s 7s 7 9 mph 1019.3mb 76f 74f
1:50am 5ft 10s 7s 7 9 mph 1019.3mb 76f 74f
12:50am 6ft 10s 7s 7 9 mph 1019.2mb 76f 74f
Thu 12/08 11:50pm 5.5ft 10s 7s 13 18 mph 1019.1mb 76f 73f
10:50pm 5ft 10s 6s 11 13 mph 1019mb 76f 74f
9:50pm 5ft 8s 6s 13 16 mph 1018.3mb 76f 76f
8:50pm 5ft 10s 6s 13 16 mph 1017.8mb 76f 76f
7:50pm 5.5ft 10s 6s 13 16 mph 1017.6mb 76f 76f
6:50pm 5ft 8s 6s 13 16 mph 1017.6mb 76f 76f
5:50pm 5ft 10s 6s 16 18 mph 1017.6mb 76f 76f
4:50pm 5ft 8s 6s 16 18 mph 1018mb 76f 76f
3:50pm 5ft 7s 6s 16 18 mph 1018.5mb 76f 76f
2:50pm 5ft 9s 6s 13 18 mph 1019.3mb 76f 76f
1:50pm 5ft 7s 6s 13 16 mph 1019.4mb 76f 76f
12:50pm 5ft 8s 6s 13 16 mph 1019mb 76f 75f
11:50am 5ft 8s 6s 13 16 mph 1018.5mb 76f 75f
10:50am 5ft 7s 6s 16
mph
1018.1mb 76f 75f
9:50am 5ft 9s 6s 16 18 mph 1017.8mb 76f 75f
8:50am 5ft 8s 6s 13 18 mph 1017.4mb 76f 75f
7:50am 5ft 8s 6s 13 18 mph 1017.6mb 76f 75f
5:50am 4.5ft 8s 6s 13 16 mph 1018.1mb 76f 75f
4:50am 5ft 8s 6s 13 16 mph 1018.3mb 76f 75f
3:50am 4.5ft 8s 6s 13 16 mph 1018.7mb 76f 75f
2:50am 4.5ft 7s 6s 13 16 mph 1018.9mb 76f 75f
1:50am 5ft 8s 6s 13 16 mph 1018.9mb 76f 76f
12:50am 4.5ft 8s 6s 11 13 mph 1018.8mb 76f 75f
Wed 12/07 11:50pm 4.5ft 8s 6s 11 13 mph 1018.8mb 76f 76f
10:50pm 4.5ft 7s 5s 13
mph
1018.6mb 76f 76f
9:50pm 4ft 8s 5s 16 18 mph 1018.3mb 76f 76f
8:50pm 4.5ft 11s 5s 16 18 mph 1017.8mb 76f 76f
7:50pm 4.5ft 8s 5s 16 18 mph 1017.6mb 76f 76f
6:50pm 4.5ft 9s 5s 18 20 mph 1017.4mb 76f 75f
5:50pm 4.5ft 8s 5s 18 22 mph 1017.5mb 76f 75f
4:50pm 4.5ft 10s 5s 18 22 mph 1017.6mb 76f 74f
3:50pm 4.5ft 11s 5s 18 20 mph 1018.6mb 76f 74f
2:50pm 4.5ft 11s 6s 18 20 mph 1018.9mb 76f 74f
1:50pm 4ft 11s 6s 13 18 mph 1019.4mb 76f 74f
12:50pm 4.5ft 10s 7s 13 18 mph 1019mb 76f 74f
11:50am 4ft 11s 6s 11 13 mph 1018.7mb 76f 73f
10:50am 4ft 12s 7s 11 13 mph 1018.5mb 76f 73f
9:50am 4ft 11s 6s 11 16 mph 1018mb 76f 73f
8:50am 4ft 12s 7s 13 16 mph 1017.8mb 76f 73f
7:50am 4.5ft 10s 7s 9 13 mph 1017.7mb 76f 73f
6:50am 4.5ft 11s 7s 11 16 mph 1018mb 76f 73f
5:50am 4.5ft 11s 7s 11 13 mph 1018.6mb 76f 73f
4:50am 4.5ft 11s 7s 11 16 mph 1019mb 76f 73f
3:50am 5ft 11s 8s 9 13 mph 1019.4mb 76f 73f
2:50am 4.5ft 11s 8s 7 9 mph 1019.8mb 76f 73f
1:50am 5ft 12s 8s 9 11 mph 1020.4mb 76f 73f
12:50am 5ft 12s 8s 7 11 mph 1020.6mb 76f 73f
Tue 12/06 11:50pm 5.5ft 11s 8s 4 9 mph 1020.4mb 76f 72f
10:50pm 6ft 12s 8s 7 11 mph 1020.4mb 76f 72f
9:50pm 6ft 11s 8s 9 11 mph 1020.2mb 76f 72f
8:50pm 6.5ft 11s 8s 9 11 mph 1019.7mb 76f 72f
7:50pm 7ft 10s 8s 9 11 mph 1019.3mb 76f 73f
6:50pm 7ft 10s 8s 9 11 mph 1019.5mb 76f 72f
5:50pm 6ft 11s 8s 7 11 mph 1019.8mb 76f 72f
4:50pm 6.5ft 10s 8s 2 4 mph 1020.3mb 76f 72f
3:50pm 7.5ft 10s 8s 2 4 mph 1021mb 76f 73f
2:50pm 7ft 11s 8s 2 4 mph 1021.7mb 76f 72f
1:50pm 7ft 11s 8s 4 7 mph 1022mb 76f 71f
12:50pm 7ft 11s 8s 4 7 mph 1021.4mb 76f 71f
11:50am 7ft 11s 8s 4 7 mph 1020.9mb 76f 71f
10:50am 6.5ft 11s 8s 7 9 mph 1020.8mb 76f 71f
9:50am 7ft 11s 8s 4 7 mph 1020.1mb 76f 70f
8:50am 7ft 10s 8s 4 7 mph 1019.3mb 76f 70f
7:50am 8.5ft 11s 8s 4 7 mph 1019.4mb 76f 70f
6:50am 7.5ft 11s 8s 4 9 mph 1019.5mb 76f 70f
5:50am 7.5ft 11s 8s 4 9 mph 1019.7mb 76f 70f
4:50am 6.5ft 11s 7s 7 11 mph 1019.8mb 76f 70f
3:50am 7ft 11s 7s 7 11 mph 1020.2mb 76f 71f
2:50am 7.5ft 11s 8s 9 11 mph 1020.3mb 76f 71f
1:50am 8ft 10s 8s 9 11 mph 1020.4mb 76f 71f
12:50am 8ft 11s 8s 9 13 mph 1020.4mb 76f 71f
Mon 12/05 11:50pm 9ft 11s 8s 9 13 mph 1020.1mb 76f 71f
10:50pm 9ft 11s 8s 9 13 mph 1019.8mb 76f 71f
9:50pm 10ft 11s 8s 11 16 mph 1019mb 76f 71f
8:50pm 9ft 11s 8s 11 16 mph 1019.1mb 76f 71f
7:50pm 10ft 11s 8s 11 16 mph 1018.7mb 76f 71f
6:50pm 10ft 12s 8s 11 13 mph 1018.2mb 76f 71f
5:50pm 9ft 11s 8s 11 13 mph 1018.4mb 76f 71f
4:50pm 9.5ft 11s 8s 13 18 mph 1018.7mb 76f 71f